Time;durP1;ratioP1;P1;durP2;ratioP2;P2;SDS_P1;SDS_P2;PMS_P1;PMS_P2;Temp;Humidity;BMP_temperature;BMP_pressure;BME280_temperature;BME280_humidity;BME280_pressure;Samples;Min_cycle;Max_cycle;Signal;HPM_P1;HPM_P2
2024/04/12 00:01:47;;;;;;;16.75;9.10;;;14.00;99.90;;;;;;5507240;25;20001;-78
2024/04/12 00:04:20;;;;;;;14.02;8.98;;;14.10;99.90;;;;;;5516804;25;20345;-78
2024/04/12 00:06:52;;;;;;;14.43;8.13;;;14.00;99.90;;;;;;5509039;26;20461;-79
2024/04/12 00:09:21;;;;;;;12.25;7.22;;;13.90;99.90;;;;;;5534873;25;20364;-78
2024/04/12 00:11:53;;;;;;;15.70;8.27;;;13.90;99.90;;;;;;5512477;26;20012;-78
2024/04/12 00:14:21;;;;;;;;;;;14.00;99.90;;;;;;5502952;26;20006;-76
2024/04/12 00:16:52;;;;;;;11.75;7.35;;;13.90;99.90;;;;;;5528124;25;19932;-76
2024/04/12 00:19:23;;;;;;;15.13;7.90;;;14.00;99.90;;;;;;5502055;26;20071;-77
2024/04/12 00:21:56;;;;;;;13.15;7.10;;;14.00;99.90;;;;;;5505986;25;19998;-77
2024/04/12 00:24:24;;;;;;;12.57;7.15;;;14.00;99.90;;;;;;5515294;25;20021;-76
2024/04/12 00:26:58;;;;;;;11.27;6.70;;;14.10;99.90;;;;;;5510889;26;20002;-76
2024/04/12 00:29:30;;;;;;;12.30;7.18;;;14.10;99.90;;;;;;5498886;26;20467;-78
2024/04/12 00:32:03;;;;;;;13.60;6.65;;;14.00;99.90;;;;;;5505184;25;20020;-77
2024/04/12 00:34:37;;;;;;;12.80;7.00;;;14.00;99.90;;;;;;5500309;26;19997;-77
2024/04/12 00:37:15;;;;;;;11.65;7.15;;;14.00;99.90;;;;;;5507118;25;20024;-76
2024/04/12 00:39:48;;;;;;;13.73;7.60;;;13.90;99.90;;;;;;5529483;25;20393;-77
2024/04/12 00:42:26;;;;;;;15.05;7.57;;;13.80;99.90;;;;;;5498201;26;20018;-76
2024/04/12 00:44:57;;;;;;;12.18;6.72;;;13.70;99.90;;;;;;5506343;26;20371;-77
2024/04/12 00:47:31;;;;;;;14.07;7.32;;;13.80;99.90;;;;;;5500023;26;20444;-77
2024/04/12 00:50:06;;;;;;;14.80;7.60;;;13.80;99.90;;;;;;5511155;25;20002;-76
2024/04/12 00:52:38;;;;;;;12.18;7.55;;;13.90;99.90;;;;;;5499839;26;20034;-78
2024/04/12 00:55:07;;;;;;;12.77;7.22;;;13.90;99.90;;;;;;5514534;25;20500;-77
2024/04/12 00:57:39;;;;;;;10.23;6.28;;;13.80;99.90;;;;;;5511550;26;20074;-77
2024/04/12 01:00:10;;;;;;;12.45;7.10;;;13.80;99.90;;;;;;5499521;26;20012;-77
2024/04/12 01:02:42;;;;;;;15.32;7.05;;;13.90;99.90;;;;;;5510394;26;22067;-75
2024/04/12 01:05:16;;;;;;;;;;;13.80;99.90;;;;;;5502434;26;20013;-76
2024/04/12 01:07:55;;;;;;;12.93;7.55;;;13.80;99.90;;;;;;5510538;25;19931;-77
2024/04/12 01:10:25;;;;;;;10.75;7.10;;;13.80;99.90;;;;;;5530498;25;20082;-76
2024/04/12 01:13:01;;;;;;;13.20;6.80;;;13.80;99.90;;;;;;5507641;25;20013;-77
2024/04/12 01:15:32;;;;;;;11.82;7.13;;;13.80;99.90;;;;;;5502653;26;20016;-76
2024/04/12 01:18:04;;;;;;;13.50;7.38;;;13.80;99.90;;;;;;5526689;25;20418;-78
2024/04/12 01:20:36;;;;;;;;;;;13.80;99.90;;;;;;5532108;25;20014;-78
2024/04/12 01:23:06;;;;;;;11.07;6.97;;;13.70;99.90;;;;;;5499694;25;19997;-77
2024/04/12 01:25:37;;;;;;;12.52;6.97;;;13.70;99.90;;;;;;5496073;26;20461;-77
2024/04/12 01:28:09;;;;;;;12.90;7.43;;;13.60;99.90;;;;;;5503231;25;20066;-77
2024/04/12 01:30:39;;;;;;;14.88;7.72;;;13.70;99.90;;;;;;5505352;26;20009;-76
2024/04/12 01:33:11;;;;;;;12.68;7.15;;;13.60;99.90;;;;;;5507332;26;20030;-76
2024/04/12 01:35:42;;;;;;;12.68;6.97;;;13.60;99.90;;;;;;5506823;26;20033;-77
2024/04/12 01:38:19;;;;;;;12.85;6.15;;;13.60;99.90;;;;;;5513065;26;20037;-76
2024/04/12 01:40:56;;;;;;;13.15;6.90;;;13.60;99.90;;;;;;5501634;25;20002;-78
2024/04/12 01:43:35;;;;;;;14.13;6.82;;;13.60;99.90;;;;;;5495548;26;20074;-77
2024/04/12 01:46:04;;;;;;;12.88;7.28;;;13.60;99.90;;;;;;5506956;25;20070;-77
2024/04/12 01:48:35;;;;;;;11.38;7.70;;;13.60;99.90;;;;;;5512264;26;20021;-78
2024/04/12 01:51:04;;;;;;;12.83;6.93;;;13.60;99.90;;;;;;5521974;25;20081;-78
2024/04/12 01:53:37;;;;;;;12.77;6.78;;;13.60;99.90;;;;;;5495046;26;20458;-78
2024/04/12 01:56:09;;;;;;;12.05;7.07;;;13.50;99.90;;;;;;5520613;25;20026;-78
2024/04/12 01:58:42;;;;;;;11.60;6.93;;;13.60;99.90;;;;;;5511280;25;20010;-77
2024/04/12 02:01:11;;;;;;;10.02;6.10;;;13.50;99.90;;;;;;5515758;26;19993;-78
2024/04/12 02:03:42;;;;;;;13.48;6.35;;;13.50;99.90;;;;;;5508851;25;20004;-78
2024/04/12 02:06:15;;;;;;;12.60;6.85;;;13.50;99.90;;;;;;5517672;25;20005;-77
2024/04/12 02:08:48;;;;;;;16.15;7.03;;;13.40;99.90;;;;;;5504844;26;20070;-78
2024/04/12 02:11:23;;;;;;;12.18;7.25;;;13.30;99.90;;;;;;5506084;25;19998;-78
2024/04/12 02:13:57;;;;;;;12.52;6.80;;;13.40;99.90;;;;;;5504391;25;20011;-78
2024/04/12 02:16:25;;;;;;;13.77;7.10;;;13.40;99.90;;;;;;5502122;26;19994;-78
2024/04/12 02:18:56;;;;;;;15.75;7.25;;;13.40;99.90;;;;;;5505151;25;20374;-79
2024/04/12 02:21:31;;;;;;;13.80;6.35;;;13.40;99.90;;;;;;5539340;25;19998;-78
2024/04/12 02:24:02;;;;;;;11.52;6.82;;;13.30;99.90;;;;;;5504833;26;20341;-78
2024/04/12 02:26:34;;;;;;;12.95;6.68;;;13.30;99.90;;;;;;5499705;25;20002;-78
2024/04/12 02:29:06;;;;;;;12.07;7.18;;;13.30;99.90;;;;;;5503719;26;19994;-78
2024/04/12 02:31:35;;;;;;;13.45;6.95;;;13.20;99.90;;;;;;5502513;25;19994;-77
2024/04/12 02:34:06;;;;;;;12.65;7.45;;;13.20;99.90;;;;;;5506029;26;20071;-77
2024/04/12 02:36:34;;;;;;;13.38;6.88;;;13.20;99.90;;;;;;5512163;25;20535;-77
2024/04/12 02:39:08;;;;;;;12.05;6.70;;;13.10;99.90;;;;;;5513044;26;20367;-77
2024/04/12 02:41:38;;;;;;;12.82;7.25;;;13.10;99.90;;;;;;5494990;26;20483;-77
2024/04/12 02:44:09;;;;;;;12.32;6.70;;;13.10;99.90;;;;;;5512004;26;20017;-78
2024/04/12 02:46:37;;;;;;;12.00;6.63;;;13.00;99.90;;;;;;5504477;26;20002;-78
2024/04/12 02:49:12;;;;;;;14.45;7.72;;;13.00;99.90;;;;;;5509220;25;20016;-77
2024/04/12 02:51:47;;;;;;;12.23;6.30;;;13.00;99.90;;;;;;5506755;26;20020;-78
2024/04/12 02:54:19;;;;;;;11.00;6.30;;;13.00;99.90;;;;;;5519281;25;19998;-78
2024/04/12 02:56:53;;;;;;;11.73;7.55;;;13.00;99.90;;;;;;5501914;26;19998;-77
2024/04/12 02:59:27;;;;;;;13.38;6.72;;;13.00;99.90;;;;;;5495165;25;20009;-77
2024/04/12 03:01:54;;;;;;;14.63;7.60;;;13.00;99.90;;;;;;5507965;26;20001;-77
2024/04/12 03:04:25;;;;;;;11.23;7.07;;;13.00;99.90;;;;;;5518040;25;20038;-77
2024/04/12 03:06:52;;;;;;;16.35;7.53;;;13.00;99.90;;;;;;5510864;25;19997;-77
2024/04/12 03:09:27;;;;;;;12.40;7.03;;;12.90;99.90;;;;;;5528927;25;20006;-78
2024/04/12 03:12:00;;;;;;;10.88;6.68;;;12.90;99.90;;;;;;5531360;25;20413;-77
2024/04/12 03:14:30;;;;;;;12.35;7.03;;;12.90;99.90;;;;;;5505259;26;19993;-77
2024/04/12 03:16:58;;;;;;;11.23;6.63;;;12.80;99.90;;;;;;5498363;26;20006;-78
2024/04/12 03:19:31;;;;;;;13.45;8.30;;;12.80;99.90;;;;;;5501519;26;19998;-77
2024/04/12 03:21:59;;;;;;;16.05;7.55;;;12.80;99.90;;;;;;5507941;25;20002;-78
2024/04/12 03:24:30;;;;;;;12.45;7.68;;;12.70;99.90;;;;;;5509806;26;20002;-78
2024/04/12 03:27:01;;;;;;;16.48;7.78;;;12.70;99.90;;;;;;5518595;25;19997;-77
2024/04/12 03:29:32;;;;;;;11.00;6.80;;;12.70;99.90;;;;;;5511175;26;20016;-77
2024/04/12 03:32:01;;;;;;;14.52;7.22;;;12.70;99.90;;;;;;5513831;26;20005;-77
2024/04/12 03:34:33;;;;;;;11.60;7.22;;;12.70;99.90;;;;;;5514708;26;20120;-77
2024/04/12 03:37:16;;;;;;;14.75;8.68;;;12.60;99.90;;;;;;5499867;26;20021;-78
2024/04/12 03:40:00;;;;;;;13.77;7.78;;;12.60;99.90;;;;;;5514977;25;20013;-77
2024/04/12 03:42:31;;;;;;;15.57;7.15;;;12.60;99.90;;;;;;5507657;26;20325;-78
2024/04/12 03:45:12;;;;;;;13.52;7.38;;;12.60;99.90;;;;;;5512919;25;19994;-78
2024/04/12 03:47:41;;;;;;;12.75;6.68;;;12.60;99.90;;;;;;5507273;26;20008;-79
2024/04/12 03:50:16;;;;;;;12.70;7.05;;;12.60;99.90;;;;;;5500669;25;20345;-78
2024/04/12 03:52:43;;;;;;;11.50;7.20;;;12.50;99.90;;;;;;5502301;26;19995;-79
2024/04/12 03:55:16;;;;;;;11.55;6.32;;;12.50;99.90;;;;;;5509954;26;20085;-78
2024/04/12 03:57:46;;;;;;;13.75;7.35;;;12.50;99.90;;;;;;5506250;25;20553;-78
2024/04/12 04:00:17;;;;;;;15.13;7.85;;;12.40;99.90;;;;;;5511755;26;20036;-78
2024/04/12 04:02:48;;;;;;;12.93;7.88;;;12.40;99.90;;;;;;5514131;25;20073;-78
2024/04/12 04:05:25;;;;;;;14.23;7.80;;;12.40;99.90;;;;;;5536910;25;20417;-78
2024/04/12 04:07:54;;;;;;;14.27;7.72;;;12.40;99.90;;;;;;5533310;25;19997;-78
2024/04/12 04:10:25;;;;;;;14.70;7.53;;;12.30;99.90;;;;;;5498652;26;19998;-79
2024/04/12 04:12:56;;;;;;;13.77;7.97;;;12.40;99.90;;;;;;5515972;25;20002;-78
2024/04/12 04:15:27;;;;;;;14.55;8.63;;;12.30;99.90;;;;;;5501422;26;19998;-78
2024/04/12 04:17:54;;;;;;;17.38;7.55;;;12.30;99.90;;;;;;5510970;25;20001;-78
2024/04/12 04:20:27;;;;;;;16.55;8.25;;;12.40;99.90;;;;;;5504328;26;19997;-79
2024/04/12 04:23:02;;;;;;;15.82;7.85;;;12.40;99.90;;;;;;5514219;25;20449;-79
2024/04/12 04:25:34;;;;;;;14.38;7.72;;;12.40;99.90;;;;;;5513125;26;20013;-78
2024/04/12 04:28:09;;;;;;;17.52;9.68;;;12.40;99.90;;;;;;5512810;26;20017;-78
2024/04/12 04:30:41;;;;;;;16.40;8.73;;;12.30;99.90;;;;;;5505095;25;20069;-78
2024/04/12 04:33:12;;;;;;;24.08;8.65;;;12.30;99.90;;;;;;5532725;25;20074;-78
2024/04/12 04:35:44;;;;;;;18.63;9.30;;;12.30;99.90;;;;;;5510040;25;20010;-78
2024/04/12 04:38:14;;;;;;;31.20;13.40;;;12.30;99.90;;;;;;5509532;26;20349;-78
2024/04/12 04:40:45;;;;;;;24.08;13.63;;;12.30;99.90;;;;;;5499908;26;20043;-77
2024/04/12 04:43:17;;;;;;;23.88;12.57;;;12.40;99.90;;;;;;5515963;26;20006;-78
2024/04/12 04:45:48;;;;;;;20.60;9.98;;;12.40;99.90;;;;;;5505861;26;20030;-77
2024/04/12 04:48:16;;;;;;;25.83;11.40;;;12.40;99.90;;;;;;5511737;25;20013;-78
2024/04/12 04:50:46;;;;;;;24.00;10.45;;;12.50;99.90;;;;;;5514247;26;20480;-78
2024/04/12 04:53:15;;;;;;;25.67;10.13;;;12.50;99.90;;;;;;5505954;25;19994;-78
2024/04/12 04:55:46;;;;;;;18.45;10.15;;;12.50;99.90;;;;;;5509212;26;20009;-78
2024/04/12 04:58:17;;;;;;;20.00;9.48;;;12.50;99.90;;;;;;5504345;26;20032;-77
2024/04/12 05:00:52;;;;;;;16.52;9.18;;;12.60;99.90;;;;;;5501907;26;19998;-77
2024/04/12 05:03:20;;;;;;;16.45;8.27;;;12.60;99.90;;;;;;5513347;26;20001;-79
2024/04/12 05:05:51;;;;;;;21.15;10.20;;;12.60;99.90;;;;;;5503412;25;20021;-78
2024/04/12 05:08:20;;;;;;;16.13;8.82;;;12.70;99.90;;;;;;5501561;26;20073;-78
2024/04/12 05:10:52;;;;;;;19.15;9.02;;;12.70;99.90;;;;;;5528395;25;20542;-77
2024/04/12 05:13:25;;;;;;;20.85;9.77;;;12.70;99.90;;;;;;5503964;26;20009;-77
2024/04/12 05:15:56;;;;;;;19.83;10.20;;;12.80;99.90;;;;;;5494174;26;19994;-77
2024/04/12 05:18:23;;;;;;;16.27;8.18;;;12.90;99.90;;;;;;5515094;26;20512;-78
2024/04/12 05:20:57;;;;;;;18.77;9.23;;;12.90;99.90;;;;;;5514895;25;19993;-77
2024/04/12 05:23:28;;;;;;;21.83;9.00;;;12.90;99.90;;;;;;5490977;25;20472;-78
2024/04/12 05:26:01;;;;;;;20.70;7.78;;;13.00;99.90;;;;;;5511844;25;20002;-78
2024/04/12 05:28:31;;;;;;;17.63;8.13;;;13.00;99.90;;;;;;5530450;25;19998;-78
2024/04/12 05:31:02;;;;;;;14.88;7.35;;;13.10;99.90;;;;;;5500576;26;21866;-77
2024/04/12 05:33:32;;;;;;;14.60;6.85;;;13.20;99.90;;;;;;5530654;25;20004;-78
2024/04/12 05:36:09;;;;;;;11.60;6.03;;;13.20;99.90;;;;;;5510855;26;20330;-78
2024/04/12 05:38:38;;;;;;;9.93;5.88;;;13.20;99.90;;;;;;5510655;25;20001;-76
2024/04/12 05:41:09;;;;;;;12.50;6.20;;;13.30;99.90;;;;;;5502716;26;20012;-77
2024/04/12 05:43:39;;;;;;;16.25;6.53;;;13.40;99.90;;;;;;5503074;25;20029;-76
2024/04/12 05:46:10;;;;;;;12.13;5.10;;;13.50;99.90;;;;;;5498062;25;20017;-78
2024/04/12 05:48:37;;;;;;;10.35;4.80;;;13.60;99.90;;;;;;5497346;25;20006;-77
2024/04/12 05:51:09;;;;;;;12.20;5.22;;;13.70;99.90;;;;;;5501375;26;19998;-78
2024/04/12 05:53:37;;;;;;;8.50;4.65;;;13.80;99.90;;;;;;5513345;25;20074;-76
2024/04/12 05:56:25;;;;;;;9.60;4.85;;;13.80;99.90;;;;;;5511318;25;20001;-76
2024/04/12 05:58:56;;;;;;;10.10;5.20;;;13.90;99.90;;;;;;5526755;25;20534;-76
2024/04/12 06:01:32;;;;;;;8.57;4.22;;;14.10;99.90;;;;;;5499918;25;20047;-77
2024/04/12 06:04:01;;;;;;;11.88;4.55;;;14.20;99.90;;;;;;5505899;26;20035;-77
2024/04/12 06:06:33;;;;;;;8.35;4.57;;;14.30;99.90;;;;;;5505209;26;20012;-79
2024/04/12 06:09:05;;;;;;;11.30;4.53;;;14.40;99.90;;;;;;5498875;26;20020;-78
2024/04/12 06:11:42;;;;;;;7.72;4.38;;;14.50;99.90;;;;;;5497505;26;20009;-77
2024/04/12 06:14:14;;;;;;;11.25;4.78;;;14.70;99.90;;;;;;5502124;25;20002;-77
2024/04/12 06:16:44;;;;;;;7.78;4.28;;;14.80;99.90;;;;;;5496277;25;20469;-78
2024/04/12 06:19:14;;;;;;;9.68;4.68;;;15.00;99.90;;;;;;5508259;25;20380;-77
2024/04/12 06:21:46;;;;;;;7.38;4.07;;;15.10;99.90;;;;;;5499361;26;20010;-77
2024/04/12 06:24:16;;;;;;;11.35;4.50;;;15.20;99.90;;;;;;5515911;26;20045;-76
2024/04/12 06:26:47;;;;;;;8.98;4.38;;;15.40;99.90;;;;;;5503354;26;20405;-77
2024/04/12 06:29:18;;;;;;;9.88;4.47;;;15.60;99.90;;;;;;5503531;25;20004;-78
2024/04/12 06:31:53;;;;;;;10.02;4.50;;;15.70;99.90;;;;;;5500457;26;20009;-77
2024/04/12 06:34:22;;;;;;;10.98;4.90;;;15.80;99.90;;;;;;5509683;25;19994;-78
2024/04/12 06:37:05;;;;;;;20.02;5.47;;;16.00;99.90;;;;;;5499242;25;20011;-78
2024/04/12 06:39:37;;;;;;;7.65;4.15;;;16.10;99.90;;;;;;5497166;26;20040;-78
2024/04/12 06:42:05;;;;;;;6.55;3.97;;;16.30;99.90;;;;;;5506213;25;19998;-77
2024/04/12 06:44:38;;;;;;;8.40;4.30;;;16.40;99.90;;;;;;5509809;26;20002;-79
2024/04/12 06:47:10;;;;;;;8.70;4.05;;;16.50;99.90;;;;;;5547895;25;19998;-79
2024/04/12 06:49:44;;;;;;;8.50;3.67;;;16.20;99.90;;;;;;5519897;25;20002;-80
2024/04/12 06:52:20;;;;;;;8.52;3.50;;;16.90;99.50;;;;;;5518608;25;20024;-77
2024/04/12 06:54:52;;;;;;;9.48;3.78;;;16.80;98.40;;;;;;5503595;26;19998;-77
2024/04/12 06:57:21;;;;;;;7.03;3.25;;;16.90;97.40;;;;;;5522043;25;20001;-80
2024/04/12 06:59:58;;;;;;;7.20;3.08;;;17.00;97.70;;;;;;5520732;25;19989;-81
2024/04/12 07:02:29;;;;;;;5.10;3.25;;;17.60;97.90;;;;;;5529811;21;20022;-78
2024/04/12 07:05:05;;;;;;;6.73;2.90;;;17.20;96.80;;;;;;5486332;26;20457;-81
2024/04/12 07:07:33;;;;;;;4.45;2.38;;;17.30;96.30;;;;;;5486567;26;20243;-79
2024/04/12 07:12:50;;;;;;;9.25;4.13;;;17.50;94.90;;;;;;5490294;26;20002;-83
2024/04/12 07:15:28;;;;;;;5.53;2.95;;;17.80;96.30;;;;;;5472658;26;19998;-78
2024/04/12 07:18:02;;;;;;;9.20;3.45;;;17.70;95.20;;;;;;5474604;26;20105;-79
2024/04/12 07:20:38;;;;;;;11.18;3.85;;;17.90;95.00;;;;;;5465442;26;20017;-77
2024/04/12 07:23:10;;;;;;;8.07;3.70;;;18.00;94.70;;;;;;5478550;26;20003;-77
2024/04/12 07:25:39;;;;;;;4.53;2.70;;;18.00;93.90;;;;;;5444373;26;19998;-79
2024/04/12 07:28:09;;;;;;;8.35;3.25;;;18.20;94.20;;;;;;5470254;26;20010;-77
2024/04/12 07:30:41;;;;;;;6.43;3.28;;;18.20;93.70;;;;;;5442228;26;20338;-77
2024/04/12 07:33:12;;;;;;;6.82;3.47;;;18.30;93.20;;;;;;5437153;26;20449;-79
2024/04/12 07:35:43;;;;;;;7.82;2.50;;;18.40;93.00;;;;;;5483876;26;20009;-83
2024/04/12 07:38:14;;;;;;;5.80;3.00;;;18.60;93.30;;;;;;5487268;26;19994;-78
2024/04/12 07:40:46;;;;;;;8.85;3.72;;;18.50;92.70;;;;;;5452865;26;20537;-77
2024/04/12 07:43:16;;;;;;;6.63;3.50;;;18.60;92.80;;;;;;5457014;26;20008;-77
2024/04/12 07:45:50;;;;;;;8.75;4.68;;;18.80;92.50;;;;;;5484010;26;20385;-78
2024/04/12 07:48:27;;;;;;;8.77;3.90;;;18.80;92.10;;;;;;5449120;26;20006;-78
2024/04/12 07:51:00;;;;;;;12.02;3.05;;;18.90;91.90;;;;;;5481173;26;20003;-82
2024/04/12 07:53:34;;;;;;;9.30;3.50;;;18.90;91.60;;;;;;5478952;26;20070;-78
2024/04/12 07:56:08;;;;;;;6.07;3.13;;;19.00;91.70;;;;;;5450340;26;20010;-77
2024/04/12 07:58:40;;;;;;;10.45;3.80;;;19.20;91.30;;;;;;5482717;26;20030;-78
2024/04/12 08:01:16;;;;;;;6.78;3.22;;;19.30;91.40;;;;;;5470855;26;19999;-80
2024/04/12 08:03:50;;;;;;;7.50;4.30;;;19.50;91.30;;;;;;5434665;26;20003;-77
2024/04/12 08:06:19;;;;;;;9.20;4.70;;;19.40;90.60;;;;;;5444726;26;19996;-77
2024/04/12 08:09:03;;;;;;;8.40;3.88;;;19.60;90.60;;;;;;5474565;21;20027;-78
2024/04/12 08:11:34;;;;;;;6.43;3.20;;;19.70;90.90;;;;;;5472945;25;20038;-77
2024/04/12 08:14:19;;;;;;;6.72;3.50;;;19.80;90.40;;;;;;5465625;25;20035;-77
2024/04/12 08:16:54;;;;;;;8.05;3.40;;;19.80;90.30;;;;;;5502095;25;20002;-81
2024/04/12 08:19:38;;;;;;;6.68;3.15;;;19.80;90.20;;;;;;5487499;26;20009;-82
2024/04/12 08:22:20;;;;;;;5.90;3.40;;;20.10;90.90;;;;;;5471060;26;20022;-84
2024/04/12 08:24:51;;;;;;;6.32;3.75;;;20.20;89.10;;;;;;5484483;26;20079;-78
2024/04/12 08:27:24;;;;;;;6.35;3.15;;;20.00;87.60;;;;;;5477108;25;20013;-80
2024/04/12 08:29:58;;;;;;;7.97;3.67;;;20.00;87.30;;;;;;5468742;25;20002;-79
2024/04/12 08:32:31;;;;;;;9.45;3.70;;;20.60;89.70;;;;;;5503121;25;19998;-77
2024/04/12 08:35:06;;;;;;;11.90;4.05;;;20.20;86.00;;;;;;5503191;25;20006;-78
2024/04/12 08:37:44;;;;;;;5.13;2.90;;;20.10;86.90;;;;;;5473468;25;20010;-84
2024/04/12 08:40:19;;;;;;;6.57;3.67;;;20.70;87.00;;;;;;5488727;25;19999;-80
2024/04/12 08:42:47;;;;;;;6.82;3.45;;;20.40;85.70;;;;;;5477351;26;20007;-80
2024/04/12 08:45:21;;;;;;;8.27;3.50;;;20.50;85.70;;;;;;5478158;25;20069;-79
2024/04/12 08:47:54;;;;;;;7.00;3.72;;;20.60;85.20;;;;;;5479846;26;20096;-80
2024/04/12 08:50:31;;;;;;;8.38;3.53;;;20.50;84.90;;;;;;5477632;25;19998;-81
2024/04/12 08:53:04;;;;;;;7.00;3.55;;;20.50;86.20;;;;;;5476325;26;20039;-80
2024/04/12 08:55:42;;;;;;;8.88;3.92;;;20.50;84.00;;;;;;5478480;26;20633;-79
2024/04/12 08:58:10;;;;;;;5.15;3.40;;;20.70;84.70;;;;;;5472953;26;20066;-78
2024/04/12 09:00:42;;;;;;;5.20;3.30;;;20.80;85.00;;;;;;5470206;25;20452;-79
2024/04/12 09:03:24;;;;;;;8.57;3.60;;;20.90;84.10;;;;;;5479704;26;20006;-78
2024/04/12 09:05:56;;;;;;;5.63;3.10;;;21.00;83.70;;;;;;5484653;25;19999;-83
2024/04/12 09:08:28;;;;;;;11.85;3.67;;;20.90;83.00;;;;;;5499057;25;20369;-79
2024/04/12 09:11:05;;;;;;;5.70;2.83;;;20.90;83.00;;;;;;5482495;25;20019;-80
2024/04/12 09:13:36;;;;;;;7.95;3.40;;;21.00;83.70;;;;;;5507436;25;20477;-78
2024/04/12 09:16:19;;;;;;;7.57;2.88;;;20.90;82.30;;;;;;5477968;26;20017;-85
2024/04/12 09:18:51;;;;;;;;;;;21.10;84.40;;;;;;5466161;25;20081;-78
2024/04/12 09:21:47;;;;;;;7.43;3.42;;;21.20;82.50;;;;;;5474359;26;20452;-77
2024/04/12 09:24:21;;;;;;;8.55;3.83;;;21.10;81.20;;;;;;5463630;25;20002;-77
2024/04/12 09:27:06;;;;;;;7.10;3.58;;;21.30;83.30;;;;;;5486352;25;20002;-78
2024/04/12 09:29:43;;;;;;;6.53;2.83;;;21.20;82.60;;;;;;5482586;26;20002;-85
2024/04/12 09:35:07;;;;;;;6.40;3.63;;;21.40;82.10;;;;;;5472036;26;20492;-82
2024/04/12 09:37:38;;;;;;;4.82;3.08;;;21.60;81.90;;;;;;5500000;25;20046;-79
2024/04/12 09:40:24;;;;;;;9.05;3.67;;;21.60;81.70;;;;;;5477643;25;19994;-78
2024/04/12 09:45:52;;;;;;;7.13;3.55;;;21.80;80.50;;;;;;5458999;25;20010;-77
2024/04/12 10:39:49;;;;;;;5.22;3.20;;;22.40;77.10;;;;;;5467829;26;20006;-79
2024/04/12 10:42:25;;;;;;;5.68;3.33;;;22.40;78.80;;;;;;5460480;26;20005;-77
2024/04/12 10:44:59;;;;;;;6.78;4.00;;;22.60;80.60;;;;;;5464015;26;20028;-85
2024/04/12 10:47:29;;;;;;;7.80;4.22;;;22.30;80.70;;;;;;5468686;25;20073;-83
2024/04/12 10:50:02;;;;;;;7.95;4.38;;;21.70;80.70;;;;;;5493033;25;20009;-80
2024/04/12 10:52:30;;;;;;;6.32;4.20;;;21.90;82.30;;;;;;5503469;25;20475;-78
2024/04/12 10:55:02;;;;;;;8.93;4.60;;;22.00;81.70;;;;;;5460039;25;20012;-80
2024/04/12 10:57:33;;;;;;;9.52;4.25;;;22.20;81.30;;;;;;5456374;25;20002;-79
2024/04/12 11:00:05;;;;;;;7.28;3.63;;;22.50;81.80;;;;;;5461790;26;20010;-78
2024/04/12 11:02:33;;;;;;;8.65;3.50;;;22.20;81.10;;;;;;5463324;25;20006;-83
2024/04/12 11:07:53;;;;;;;7.35;3.55;;;22.40;80.90;;;;;;5462113;25;20042;-84
2024/04/12 11:10:25;;;;;;;9.10;3.45;;;22.40;80.20;;;;;;5477343;25;20006;-78
2024/04/12 11:13:01;;;;;;;6.65;3.58;;;22.70;81.70;;;;;;5463531;26;19998;-84
2024/04/12 11:32:29;;;;;;;6.15;4.40;;;22.60;79.80;;;;;;5470309;25;20432;-84
2024/04/12 11:35:05;;;;;;;8.07;4.10;;;22.70;81.10;;;;;;5461136;26;20003;-81
2024/04/12 11:37:33;;;;;;;7.90;4.35;;;22.90;80.10;;;;;;5495800;25;20002;-82
2024/04/12 11:40:03;;;;;;;11.20;4.53;;;22.80;81.30;;;;;;5479123;25;20488;-84
2024/04/12 11:42:32;;;;;;;9.65;5.35;;;22.80;80.10;;;;;;5466635;26;20003;-83
2024/04/12 11:45:06;;;;;;;8.27;4.72;;;22.70;79.80;;;;;;5478171;26;20393;-78
2024/04/12 11:47:35;;;;;;;8.45;4.30;;;22.90;79.80;;;;;;5474915;25;20457;-82
2024/04/12 11:50:10;;;;;;;7.05;4.20;;;23.00;80.00;;;;;;5479499;26;20024;-79
2024/04/12 11:52:38;;;;;;;11.43;4.30;;;23.00;79.10;;;;;;5466364;26;19999;-85
2024/04/12 11:55:12;;;;;;;7.55;4.10;;;23.00;79.10;;;;;;5471826;25;19997;-77
2024/04/12 11:57:41;;;;;;;10.45;5.50;;;23.20;81.40;;;;;;5470472;25;20354;-77
2024/04/12 12:00:15;;;;;;;7.55;4.63;;;23.30;79.50;;;;;;5492309;25;19998;-78
2024/04/12 12:02:43;;;;;;;8.93;5.25;;;23.00;79.60;;;;;;5477731;25;20010;-75
2024/04/12 12:05:16;;;;;;;9.75;4.43;;;23.20;80.60;;;;;;5481241;26;20473;-73
2024/04/12 12:07:47;;;;;;;12.20;5.13;;;22.90;79.70;;;;;;5470830;26;19998;-83
2024/04/12 12:10:18;;;;;;;12.02;4.97;;;22.80;79.50;;;;;;5503462;25;20013;-79
2024/04/12 12:12:46;;;;;;;8.63;5.15;;;23.00;80.60;;;;;;5475385;26;20022;-76
2024/04/12 12:15:19;;;;;;;9.10;5.20;;;22.90;82.00;;;;;;5472748;25;20005;-75
2024/04/12 12:17:47;;;;;;;8.45;5.35;;;23.00;81.00;;;;;;5472040;26;19999;-75
2024/04/12 12:20:20;;;;;;;10.80;5.35;;;23.00;79.90;;;;;;5480781;26;20007;-74
2024/04/12 12:22:48;;;;;;;9.05;4.72;;;22.90;80.30;;;;;;5461075;26;20010;-73
2024/04/12 12:25:19;;;;;;;8.55;4.53;;;22.70;80.70;;;;;;5480180;26;20527;-76
2024/04/12 12:27:49;;;;;;;7.85;4.03;;;22.70;79.20;;;;;;5476614;26;20464;-74
2024/04/12 12:30:23;;;;;;;7.03;4.07;;;22.70;78.70;;;;;;5467923;26;20008;-75
2024/04/12 12:32:52;;;;;;;14.40;4.63;;;23.00;77.00;;;;;;5463883;26;21948;-75
2024/04/12 12:35:24;;;;;;;6.75;3.67;;;22.80;76.40;;;;;;5464625;26;20352;-75
2024/04/12 12:37:52;;;;;;;8.87;3.27;;;22.90;77.40;;;;;;5473375;26;20007;-75
2024/04/12 12:40:22;;;;;;;6.45;3.95;;;23.40;76.70;;;;;;5474862;26;19998;-73
2024/04/12 12:42:51;;;;;;;5.55;2.63;;;23.60;76.30;;;;;;5467015;25;20470;-74
2024/04/12 12:45:27;;;;;;;6.82;3.38;;;23.50;71.50;;;;;;5470440;26;20009;-76
2024/04/12 12:47:55;;;;;;;4.85;3.67;;;23.50;71.00;;;;;;5461375;25;20082;-75
2024/04/12 12:50:26;;;;;;;7.05;3.85;;;23.30;71.90;;;;;;5455778;26;20075;-77
2024/04/12 12:52:54;;;;;;;5.78;4.03;;;23.40;72.80;;;;;;5462490;26;19997;-74
2024/04/12 12:55:28;;;;;;;5.97;3.72;;;23.30;73.30;;;;;;5473340;26;20003;-74
2024/04/12 12:58:09;;;;;;;8.77;4.15;;;23.50;75.00;;;;;;5504381;25;19993;-77
2024/04/12 13:00:45;;;;;;;6.90;3.42;;;23.40;73.00;;;;;;5468566;26;20587;-77
2024/04/12 13:03:17;;;;;;;7.47;4.22;;;23.50;72.70;;;;;;5460381;26;19998;-76
2024/04/12 13:05:49;;;;;;;9.48;4.18;;;23.60;73.40;;;;;;5472965;26;20001;-79
2024/04/12 13:08:17;;;;;;;9.80;4.55;;;23.70;73.00;;;;;;5461201;26;20020;-85
2024/04/12 13:10:48;;;;;;;6.22;3.47;;;23.40;72.00;;;;;;5470007;26;20002;-83
2024/04/12 13:13:21;;;;;;;7.47;3.67;;;23.50;72.50;;;;;;5465044;26;20017;-84
2024/04/12 13:15:58;;;;;;;7.82;4.25;;;23.40;72.10;;;;;;5460484;26;19995;-85
2024/04/12 13:18:27;;;;;;;6.50;3.97;;;23.10;72.70;;;;;;5466830;25;20470;-80
2024/04/12 13:20:59;;;;;;;8.07;4.00;;;23.20;72.80;;;;;;5480700;26;20461;-83
2024/04/12 13:23:26;;;;;;;6.87;3.77;;;23.40;74.60;;;;;;5465101;25;20006;-83
2024/04/12 13:25:58;;;;;;;6.78;4.20;;;23.60;72.30;;;;;;5471469;26;20005;-85
2024/04/12 13:28:29;;;;;;;6.95;4.07;;;23.40;73.60;;;;;;5472887;25;19994;-82
2024/04/12 13:31:02;;;;;;;9.10;3.50;;;23.60;73.00;;;;;;5442727;26;20447;-83
2024/04/12 13:33:30;;;;;;;6.40;3.28;;;23.70;72.70;;;;;;5463307;25;19999;-82
2024/04/12 13:36:07;;;;;;;8.05;4.38;;;23.80;73.70;;;;;;5464386;26;20031;-83
2024/04/12 13:38:36;;;;;;;8.10;3.42;;;23.80;73.10;;;;;;5467289;26;20010;-86
2024/04/12 13:41:10;;;;;;;8.95;3.80;;;23.80;73.10;;;;;;5466266;26;20002;-85
2024/04/12 13:43:39;;;;;;;6.72;3.47;;;23.80;73.80;;;;;;5460538;25;20009;-86
2024/04/12 13:51:49;;;;;;;7.18;4.00;;;23.40;72.20;;;;;;5458398;25;20002;-86
2024/04/12 13:54:21;;;;;;;8.02;3.90;;;23.20;71.80;;;;;;5463292;26;20534;-83
2024/04/12 13:56:56;;;;;;;6.22;3.78;;;23.40;73.80;;;;;;5465441;26;20021;-84
2024/04/12 13:59:23;;;;;;;7.43;3.92;;;23.30;74.10;;;;;;5487419;25;20066;-85
2024/04/12 14:01:58;;;;;;;7.68;3.80;;;23.30;73.10;;;;;;5463809;25;20465;-86
2024/04/12 14:04:27;;;;;;;6.90;3.40;;;23.20;73.20;;;;;;5474217;26;20003;-83
2024/04/12 14:06:58;;;;;;;8.70;3.72;;;23.30;74.00;;;;;;5473850;26;20015;-85
2024/04/12 14:09:28;;;;;;;7.80;3.30;;;23.50;73.50;;;;;;5498346;25;20003;-84
2024/04/12 14:11:58;;;;;;;9.85;4.00;;;23.40;73.00;;;;;;5471628;26;20003;-82
2024/04/12 14:14:26;;;;;;;5.78;3.28;;;23.30;73.50;;;;;;5467349;26;20030;-79
2024/04/12 14:16:59;;;;;;;5.43;3.05;;;23.30;73.60;;;;;;5478244;25;19999;-77
2024/04/12 14:19:27;;;;;;;8.48;3.55;;;23.40;73.70;;;;;;5475467;26;20350;-78
2024/04/12 14:21:57;;;;;;;7.07;3.08;;;23.30;74.00;;;;;;5463242;26;20006;-80
2024/04/12 14:27:14;;;;;;;5.28;3.15;;;23.20;73.20;;;;;;5468145;26;20549;-79
2024/04/12 14:29:43;;;;;;;5.90;2.38;;;23.00;71.80;;;;;;5458266;25;20003;-77
2024/04/12 14:32:16;;;;;;;6.30;2.30;;;23.10;72.40;;;;;;5466663;25;20437;-78
2024/04/12 14:34:47;;;;;;;5.75;2.85;;;23.20;71.70;;;;;;5503806;25;19998;-79
2024/04/12 14:37:27;;;;;;;11.55;4.45;;;23.10;71.80;;;;;;5463880;26;20010;-80